Time;durP1;ratioP1;P1;durP2;ratioP2;P2;SDS_P1;SDS_P2;PMS_P1;PMS_P2;Temp;Humidity;BMP_temperature;BMP_pressure;BME280_temperature;BME280_humidity;BME280_pressure;Samples;Min_cycle;Max_cycle;Signal;HPM_P1;HPM_P2
2024/01/11 00:00:43;;;;;;;5.20;3.97;;;-1.50;1.00;;;;;;4993203;28;20488;-73
2024/01/11 00:03:11;;;;;;;0.60;0.40;;;-1.50;1.00;;;;;;4993001;28;20448;-71
2024/01/11 00:05:39;;;;;;;5.07;4.67;;;-1.50;1.00;;;;;;4993115;28;20480;-71
2024/01/11 00:08:08;;;;;;;11.10;3.90;;;-1.60;1.00;;;;;;4986398;28;21039;-71
2024/01/11 00:10:36;;;;;;;5.43;3.57;;;-1.60;1.00;;;;;;4992425;28;20440;-71
2024/01/11 00:13:04;;;;;;;3.63;3.03;;;-1.70;1.00;;;;;;4992330;28;20453;-72
2024/01/11 00:15:32;;;;;;;1.60;1.50;;;-1.70;1.00;;;;;;4994800;28;20453;-72
2024/01/11 00:18:00;;;;;;;12.40;4.67;;;-1.70;1.00;;;;;;4994869;28;20931;-73
2024/01/11 00:20:28;;;;;;;7.20;5.60;;;-1.80;1.00;;;;;;4992241;28;20511;-72
2024/01/11 00:22:56;;;;;;;8.40;7.70;;;-1.80;1.00;;;;;;4987017;28;20445;-72
2024/01/11 00:25:26;;;;;;;6.80;6.43;;;-1.90;1.00;;;;;;4992239;28;20444;-72
2024/01/11 00:27:53;;;;;;;1.27;1.00;;;-1.90;1.00;;;;;;4992223;28;21204;-72
2024/01/11 00:30:23;;;;;;;5.30;2.43;;;-1.90;1.00;;;;;;4992259;28;20552;-72
2024/01/11 00:32:51;;;;;;;3.57;3.27;;;-1.80;1.00;;;;;;4992002;28;20939;-73
2024/01/11 00:35:19;;;;;;;4.50;3.70;;;-1.90;1.00;;;;;;4992129;28;20444;-73
2024/01/11 00:37:47;;;;;;;0.93;0.93;;;-1.80;1.00;;;;;;4990894;28;20481;-72
2024/01/11 00:40:15;;;;;;;10.13;5.53;;;-1.90;1.00;;;;;;4992555;28;20528;-72
2024/01/11 00:42:44;;;;;;;0.50;0.27;;;-1.90;1.00;;;;;;4992705;28;20516;-73
2024/01/11 00:45:12;;;;;;;1.90;1.60;;;-1.80;1.00;;;;;;4984571;28;20534;-72
2024/01/11 00:47:40;;;;;;;0.90;0.70;;;-1.80;1.00;;;;;;4991620;28;20488;-72
2024/01/11 00:50:09;;;;;;;7.40;2.83;;;-1.80;1.00;;;;;;4992465;28;20437;-71
2024/01/11 00:52:38;;;;;;;6.13;2.93;;;-1.80;1.00;;;;;;4984351;28;20463;-72
2024/01/11 00:55:07;;;;;;;6.07;5.70;;;-1.90;1.00;;;;;;4991291;28;20488;-72
2024/01/11 00:57:34;;;;;;;0.50;0.10;;;-1.90;1.00;;;;;;4991811;28;20519;-73
2024/01/11 01:00:04;;;;;;;3.03;2.83;;;-1.90;1.00;;;;;;4992145;28;20480;-73
2024/01/11 01:02:32;;;;;;;0.70;0.60;;;-1.90;1.00;;;;;;4983170;28;20575;-74
2024/01/11 01:05:00;;;;;;;1.60;0.77;;;-1.90;1.00;;;;;;4981028;28;20460;-72
2024/01/11 01:07:28;;;;;;;1.50;1.30;;;-2.00;1.00;;;;;;4987789;28;20488;-72
2024/01/11 01:09:56;;;;;;;2.43;2.23;;;-2.00;1.00;;;;;;4993058;28;20500;-73
2024/01/11 01:12:24;;;;;;;5.70;3.93;;;-2.00;1.00;;;;;;4987342;28;20544;-72
2024/01/11 01:14:52;;;;;;;5.90;1.90;;;-2.00;1.00;;;;;;4985087;28;20543;-73
2024/01/11 01:17:22;;;;;;;7.17;6.40;;;-2.00;1.00;;;;;;4992951;28;20528;-73
2024/01/11 01:19:50;;;;;;;7.03;4.97;;;-2.10;1.00;;;;;;4994246;28;20455;-73
2024/01/11 01:22:18;;;;;;;5.60;2.40;;;-2.10;1.00;;;;;;4988953;28;21015;-73
2024/01/11 01:24:46;;;;;;;4.80;2.43;;;-2.10;1.00;;;;;;4996601;28;20449;-72
2024/01/11 01:27:14;;;;;;;5.03;4.63;;;-2.10;1.00;;;;;;4994304;28;20516;-72
2024/01/11 01:29:41;;;;;;;1.53;1.43;;;-2.10;1.00;;;;;;4995536;28;20492;-72
2024/01/11 01:32:09;;;;;;;5.23;1.23;;;-2.00;1.00;;;;;;4996082;28;20452;-72
2024/01/11 01:34:39;;;;;;;2.00;1.90;;;-2.00;1.00;;;;;;4996525;28;20535;-73
2024/01/11 01:37:07;;;;;;;0.50;0.30;;;-2.00;1.00;;;;;;4997125;28;20560;-71
2024/01/11 01:39:38;;;;;;;1.83;1.73;;;-2.10;1.00;;;;;;4996005;28;20479;-71
2024/01/11 01:42:06;;;;;;;2.60;1.70;;;-2.00;1.00;;;;;;4997786;28;20495;-72
2024/01/11 01:44:34;;;;;;;0.97;0.97;;;-2.00;1.00;;;;;;4993380;28;20511;-72
2024/01/11 01:47:05;;;;;;;3.00;2.80;;;-2.00;1.00;;;;;;4997684;28;20480;-72
2024/01/11 01:49:33;;;;;;;2.10;2.00;;;-2.00;1.00;;;;;;4996735;28;20543;-71
2024/01/11 01:52:03;;;;;;;0.87;0.87;;;-2.10;1.00;;;;;;4988751;28;20441;-71
2024/01/11 01:54:33;;;;;;;4.50;2.60;;;-2.10;1.00;;;;;;4995755;28;21112;-72
2024/01/11 01:57:02;;;;;;;1.57;1.23;;;-2.10;1.00;;;;;;4988038;28;20907;-73
2024/01/11 01:59:31;;;;;;;4.10;1.77;;;-2.10;1.00;;;;;;4986766;28;20457;-73
2024/01/11 02:02:00;;;;;;;6.63;2.40;;;-2.10;1.00;;;;;;4987613;28;20854;-73
2024/01/11 02:04:28;;;;;;;4.30;2.67;;;-2.00;1.00;;;;;;4995382;28;20454;-73
2024/01/11 02:06:58;;;;;;;4.07;2.60;;;-2.10;1.00;;;;;;4995166;28;20836;-72
2024/01/11 02:09:29;;;;;;;2.40;2.03;;;-2.10;1.00;;;;;;4997751;28;20477;-74
2024/01/11 02:11:57;;;;;;;8.73;6.20;;;-2.10;1.00;;;;;;4996353;28;20448;-73
2024/01/11 02:14:26;;;;;;;3.47;3.23;;;-2.20;1.00;;;;;;4995066;28;20548;-74
2024/01/11 02:16:54;;;;;;;1.53;0.87;;;-2.20;1.00;;;;;;4994012;28;20461;-70
2024/01/11 02:19:22;;;;;;;0.50;0.23;;;-2.20;1.00;;;;;;4993939;28;20517;-73
2024/01/11 02:21:54;;;;;;;4.87;4.37;;;-2.10;1.00;;;;;;4995206;28;20583;-71
2024/01/11 02:24:24;;;;;;;0.57;0.40;;;-2.10;1.00;;;;;;4997103;28;20441;-71
2024/01/11 02:27:02;;;;;;;0.50;0.27;;;-2.10;1.00;;;;;;4996744;28;20465;-72
2024/01/11 02:29:31;;;;;;;1.63;1.40;;;-2.10;1.00;;;;;;4994705;28;20456;-71
2024/01/11 02:32:00;;;;;;;1.53;1.20;;;-2.00;1.00;;;;;;4991630;28;20472;-72
2024/01/11 02:34:30;;;;;;;0.97;0.87;;;-2.00;1.00;;;;;;4994755;28;20507;-72
2024/01/11 02:36:58;;;;;;;0.50;0.10;;;-2.00;1.00;;;;;;4994340;28;20460;-72
2024/01/11 02:39:27;;;;;;;3.03;2.10;;;-2.00;1.00;;;;;;4992754;28;20525;-72
2024/01/11 02:41:58;;;;;;;3.03;2.20;;;-2.00;1.00;;;;;;4994404;28;20441;-72
2024/01/11 02:44:26;;;;;;;0.50;0.20;;;-2.00;1.00;;;;;;4995313;28;21039;-71
2024/01/11 02:46:54;;;;;;;0.90;0.70;;;-2.00;1.00;;;;;;4994301;28;20479;-70
2024/01/11 02:49:22;;;;;;;0.50;0.10;;;-2.00;1.00;;;;;;4995092;28;20481;-73
2024/01/11 02:51:50;;;;;;;0.50;0.10;;;-2.00;1.00;;;;;;4994267;28;20535;-71
2024/01/11 02:54:17;;;;;;;0.50;0.40;;;-2.00;1.00;;;;;;4994297;28;20455;-73
2024/01/11 02:56:47;;;;;;;2.27;1.27;;;-1.90;1.00;;;;;;5022718;22;20485;-74
2024/01/11 02:59:15;;;;;;;2.83;2.60;;;;;;;;;;5002573;28;20445;-73
2024/01/11 03:01:43;;;;;;;0.50;0.10;;;;;;;;;;5013715;28;20518;-74
2024/01/11 03:04:11;;;;;;;18.40;2.87;;;-2.00;1.00;;;;;;5001093;28;20441;-73
2024/01/11 03:06:39;;;;;;;4.97;4.53;;;-2.00;1.00;;;;;;4979576;28;20524;-73
2024/01/11 03:09:07;;;;;;;0.83;0.60;;;-2.00;1.00;;;;;;4979693;28;20841;-72
2024/01/11 03:11:35;;;;;;;4.17;3.83;;;-2.10;1.00;;;;;;4981626;28;20478;-73
2024/01/11 03:14:04;;;;;;;0.50;0.10;;;-2.10;1.00;;;;;;4980660;28;21181;-74
2024/01/11 03:16:32;;;;;;;9.70;3.03;;;-2.10;1.00;;;;;;4986224;28;20461;-72
2024/01/11 03:19:00;;;;;;;0.50;0.10;;;-2.10;1.00;;;;;;4986446;28;20528;-72
2024/01/11 03:21:28;;;;;;;0.93;0.93;;;-2.10;1.00;;;;;;4987320;28;20472;-73
2024/01/11 03:23:56;;;;;;;2.60;2.47;;;-2.20;1.00;;;;;;4991745;28;20452;-73
2024/01/11 03:26:24;;;;;;;1.00;0.87;;;-2.20;1.00;;;;;;4975037;28;20461;-73
2024/01/11 03:28:52;;;;;;;0.50;0.23;;;-2.30;1.00;;;;;;4984175;28;20485;-72
2024/01/11 03:31:22;;;;;;;1.63;1.13;;;-2.30;1.00;;;;;;4984988;28;20461;-72
2024/01/11 03:33:49;;;;;;;3.50;2.83;;;-2.30;1.00;;;;;;4975302;28;20901;-72
2024/01/11 03:36:18;;;;;;;0.97;0.87;;;;;;;;;;4982313;28;20846;-74
2024/01/11 03:38:46;;;;;;;2.63;2.43;;;;;;;;;;4989124;28;20931;-73
2024/01/11 03:41:19;;;;;;;0.93;0.90;;;-2.40;1.00;;;;;;4974756;28;20441;-73
2024/01/11 03:43:47;;;;;;;3.53;2.83;;;-2.40;1.00;;;;;;4983367;28;20505;-73
2024/01/11 03:46:15;;;;;;;0.50;0.10;;;-2.50;1.00;;;;;;4985725;28;20917;-74
2024/01/11 03:48:44;;;;;;;7.60;3.70;;;-2.50;1.00;;;;;;4985487;28;20593;-73
2024/01/11 03:51:12;;;;;;;11.10;2.93;;;-2.50;1.00;;;;;;4982813;28;20521;-73
2024/01/11 03:53:40;;;;;;;8.80;3.20;;;-2.50;1.00;;;;;;4982512;28;20485;-73
2024/01/11 03:56:08;;;;;;;2.73;2.33;;;;;;;;;;4985207;28;20492;-72
2024/01/11 03:58:39;;;;;;;4.27;2.90;;;-2.50;1.00;;;;;;4993875;28;20445;-73
2024/01/11 04:01:09;;;;;;;7.03;5.83;;;-2.50;1.00;;;;;;4982895;28;20438;-73
2024/01/11 04:03:37;;;;;;;1.23;1.13;;;-2.50;1.00;;;;;;4982226;28;20504;-72
2024/01/11 04:06:07;;;;;;;1.80;1.40;;;-2.50;1.00;;;;;;4985332;28;20461;-73
2024/01/11 04:08:36;;;;;;;0.80;0.77;;;-2.50;1.00;;;;;;4985446;28;20484;-72
2024/01/11 04:11:04;;;;;;;5.90;2.63;;;-2.50;1.00;;;;;;4982403;28;20448;-72
2024/01/11 04:13:32;;;;;;;4.23;3.80;;;-2.50;1.00;;;;;;4985059;28;20465;-73
2024/01/11 04:16:04;;;;;;;6.63;4.50;;;-2.50;1.00;;;;;;4993863;28;20503;-72
2024/01/11 04:18:32;;;;;;;0.50;0.33;;;-2.50;1.00;;;;;;4985749;28;20449;-72
2024/01/11 04:21:00;;;;;;;2.93;2.10;;;-2.50;1.00;;;;;;4991531;28;20460;-72
2024/01/11 04:23:29;;;;;;;3.07;2.87;;;-2.60;1.00;;;;;;4981989;28;20504;-72
2024/01/11 04:25:57;;;;;;;3.33;1.80;;;;;;;;;;4983734;28;20470;-72
2024/01/11 04:28:25;;;;;;;21.37;8.17;;;-2.60;1.00;;;;;;4984037;28;20527;-73
2024/01/11 04:30:53;;;;;;;7.83;3.33;;;;;;;;;;4992945;28;20539;-73
2024/01/11 04:33:21;;;;;;;4.00;3.43;;;-2.60;1.00;;;;;;4985285;28;20451;-73
2024/01/11 04:35:49;;;;;;;3.17;1.37;;;-2.60;1.00;;;;;;4976067;28;20453;-73
2024/01/11 04:38:17;;;;;;;17.07;5.37;;;-2.70;1.00;;;;;;4981442;28;20461;-73
2024/01/11 04:40:46;;;;;;;9.20;6.90;;;-2.80;1.00;;;;;;4981972;28;20474;-74
2024/01/11 04:43:14;;;;;;;0.60;0.30;;;-2.80;1.00;;;;;;4984976;28;20445;-73
2024/01/11 04:45:42;;;;;;;15.60;11.43;;;-2.80;1.00;;;;;;4991645;28;20480;-73
2024/01/11 04:48:10;;;;;;;22.37;9.07;;;-2.90;1.00;;;;;;4993142;28;20511;-72
2024/01/11 04:50:38;;;;;;;12.93;11.87;;;-2.90;1.00;;;;;;4985232;28;20436;-72
2024/01/11 04:53:07;;;;;;;2.93;2.63;;;;;;;;;;4982018;28;20437;-72
2024/01/11 04:55:34;;;;;;;10.50;3.03;;;-3.00;1.00;;;;;;4984236;28;20445;-73
2024/01/11 04:58:04;;;;;;;4.47;2.33;;;-2.90;1.00;;;;;;4987539;28;20544;-72
2024/01/11 05:00:32;;;;;;;0.60;0.60;;;-2.90;1.00;;;;;;4988484;28;20518;-72
2024/01/11 05:03:00;;;;;;;3.30;1.83;;;-2.90;1.00;;;;;;4992414;28;20455;-73
2024/01/11 05:05:28;;;;;;;7.60;5.10;;;-2.80;1.00;;;;;;4985095;28;20445;-72
2024/01/11 05:07:56;;;;;;;10.43;6.30;;;;;;;;;;4986217;28;20478;-73
2024/01/11 05:10:24;;;;;;;4.10;3.33;;;-2.80;1.00;;;;;;4988545;28;20480;-73
2024/01/11 05:12:51;;;;;;;10.27;2.97;;;-2.80;1.00;;;;;;4985465;28;20521;-73
2024/01/11 05:15:21;;;;;;;2.43;2.23;;;-2.80;1.00;;;;;;4989017;28;20543;-73
2024/01/11 05:17:49;;;;;;;8.13;2.53;;;-2.90;1.00;;;;;;4987179;28;20487;-74
2024/01/11 05:20:17;;;;;;;12.43;7.10;;;-2.90;1.00;;;;;;4984095;28;20524;-73
2024/01/11 05:22:45;;;;;;;3.03;2.37;;;-3.00;1.00;;;;;;4988164;28;20943;-72
2024/01/11 05:25:14;;;;;;;9.50;5.77;;;-2.90;1.00;;;;;;4992870;28;20448;-72
2024/01/11 05:27:41;;;;;;;3.00;2.80;;;-3.00;1.00;;;;;;4984887;28;20520;-73
2024/01/11 05:30:10;;;;;;;5.13;4.73;;;-3.00;1.00;;;;;;4987758;28;20480;-72
2024/01/11 05:32:39;;;;;;;9.17;5.03;;;-3.00;1.00;;;;;;4992580;28;20548;-73
2024/01/11 05:35:10;;;;;;;5.57;5.00;;;-3.00;1.00;;;;;;4984606;28;20441;-72
2024/01/11 05:37:38;;;;;;;5.90;3.20;;;;;;;;;;4979934;28;20461;-73
2024/01/11 05:40:07;;;;;;;6.60;4.67;;;-3.10;1.00;;;;;;4983923;28;20499;-71
2024/01/11 05:42:37;;;;;;;7.47;4.90;;;;;;;;;;4984615;28;20437;-72
2024/01/11 05:45:05;;;;;;;15.47;8.07;;;;;;;;;;4986574;28;20445;-72
2024/01/11 05:47:33;;;;;;;5.80;4.90;;;-3.30;1.00;;;;;;4986805;28;20499;-71
2024/01/11 05:50:02;;;;;;;3.90;2.47;;;-3.30;1.00;;;;;;4988047;28;20481;-72
2024/01/11 05:52:30;;;;;;;4.00;2.87;;;-3.30;1.00;;;;;;4993368;28;20484;-74
2024/01/11 05:54:59;;;;;;;6.53;4.70;;;-3.30;1.00;;;;;;5002498;28;20508;-73
2024/01/11 05:57:27;;;;;;;6.20;3.17;;;;;;;;;;5007198;28;20463;-72
2024/01/11 05:59:55;;;;;;;11.40;5.93;;;-3.30;1.00;;;;;;5007734;28;20445;-74
2024/01/11 06:02:23;;;;;;;6.00;5.47;;;;;;;;;;5000646;28;20549;-72
2024/01/11 06:04:51;;;;;;;6.87;3.57;;;-3.30;1.00;;;;;;4992017;28;20451;-73
2024/01/11 06:07:20;;;;;;;26.00;6.60;;;-3.40;1.00;;;;;;4985464;28;20469;-73
2024/01/11 06:09:48;;;;;;;8.20;6.50;;;;;;;;;;4987527;28;20482;-74
2024/01/11 06:12:17;;;;;;;8.63;6.43;;;;;;;;;;4993062;28;20823;-72
2024/01/11 06:14:45;;;;;;;2.60;2.40;;;;;;;;;;4995094;28;20436;-72
2024/01/11 06:17:13;;;;;;;2.40;2.13;;;;;;;;;;4991270;28;20503;-73
2024/01/11 06:19:42;;;;;;;6.50;5.20;;;;;;;;;;4991841;28;20437;-73
2024/01/11 06:22:10;;;;;;;19.77;7.27;;;-3.40;1.00;;;;;;4984136;28;20555;-73
2024/01/11 06:24:39;;;;;;;3.70;3.23;;;-3.40;1.00;;;;;;4988991;28;20893;-73
2024/01/11 06:27:07;;;;;;;8.70;7.10;;;-3.40;1.00;;;;;;4986520;28;20479;-74
2024/01/11 06:29:35;;;;;;;3.70;2.37;;;;;;;;;;4986373;28;20572;-73
2024/01/11 06:32:03;;;;;;;2.00;1.80;;;-3.40;1.00;;;;;;4989384;28;20444;-73
2024/01/11 06:34:31;;;;;;;23.90;8.83;;;;;;;;;;4986199;28;20491;-74
2024/01/11 06:36:59;;;;;;;13.60;8.30;;;-3.60;1.00;;;;;;4993415;28;20465;-72
2024/01/11 06:39:27;;;;;;;9.07;6.17;;;;;;;;;;4983661;28;20477;-73
2024/01/11 06:41:56;;;;;;;5.17;3.97;;;-3.40;1.00;;;;;;4984499;28;20442;-73
2024/01/11 06:44:24;;;;;;;10.70;6.87;;;;;;;;;;4981920;28;20433;-74
2024/01/11 06:46:53;;;;;;;1.60;1.43;;;;;;;;;;4983858;28;20780;-72
2024/01/11 06:49:21;;;;;;;0.80;0.60;;;-3.40;1.00;;;;;;4992975;28;20444;-71
2024/01/11 06:51:49;;;;;;;8.30;6.27;;;;;;;;;;4995824;28;20463;-73
2024/01/11 06:54:17;;;;;;;7.90;5.57;;;;;;;;;;4986983;28;20540;-73
2024/01/11 06:56:45;;;;;;;12.93;5.60;;;-3.40;1.00;;;;;;4987035;28;20481;-73
2024/01/11 06:59:14;;;;;;;2.83;1.40;;;-3.40;1.00;;;;;;4986175;28;20919;-74
2024/01/11 07:01:47;;;;;;;4.93;4.50;;;;;;;;;;4986028;28;20433;-74
2024/01/11 07:04:15;;;;;;;3.40;1.20;;;;;;;;;;4986719;28;20452;-73
2024/01/11 07:06:43;;;;;;;4.77;3.20;;;-3.40;1.00;;;;;;4987098;28;20520;-74
2024/01/11 07:09:11;;;;;;;9.00;4.70;;;-3.30;1.00;;;;;;4991972;28;20464;-73
2024/01/11 07:11:40;;;;;;;2.03;1.93;;;;;;;;;;4990586;28;20542;-73
2024/01/11 07:14:08;;;;;;;3.57;3.27;;;-3.30;1.00;;;;;;4990968;28;20444;-73
2024/01/11 07:16:37;;;;;;;6.53;5.90;;;-3.50;1.00;;;;;;4993871;28;20617;-73
2024/01/11 07:19:06;;;;;;;2.87;2.67;;;;;;;;;;4990148;28;20456;-72
2024/01/11 07:21:34;;;;;;;8.27;7.40;;;-3.30;1.00;;;;;;4987433;28;20965;-74
2024/01/11 07:24:01;;;;;;;0.70;0.60;;;-3.40;1.00;;;;;;4992427;28;21010;-74
2024/01/11 07:26:30;;;;;;;3.37;1.80;;;;;;;;;;4993031;28;20484;-73
2024/01/11 07:28:58;;;;;;;1.50;1.40;;;-3.40;1.00;;;;;;4992847;28;20544;-73
2024/01/11 07:31:26;;;;;;;7.33;6.60;;;;;;;;;;4994097;28;21133;-72
2024/01/11 07:33:55;;;;;;;4.03;3.83;;;-3.40;1.00;;;;;;4977578;28;20450;-72
2024/01/11 07:36:23;;;;;;;12.93;5.83;;;-3.40;1.00;;;;;;4987339;28;20530;-73
2024/01/11 07:38:52;;;;;;;0.50;0.37;;;;;;;;;;4973342;28;20519;-73
2024/01/11 07:41:20;;;;;;;4.43;4.17;;;;;;;;;;4991485;28;20456;-73
2024/01/11 07:43:48;;;;;;;0.70;0.57;;;;;;;;;;4978707;28;20596;-72
2024/01/11 07:46:21;;;;;;;3.17;2.87;;;-3.40;1.00;;;;;;4982562;28;20864;-73
2024/01/11 07:49:04;;;;;;;6.27;3.10;;;-3.30;1.00;;;;;;4974966;28;20454;-73
2024/01/11 07:51:33;;;;;;;4.40;2.30;;;-3.40;1.00;;;;;;4979620;28;20516;-72
2024/01/11 07:54:01;;;;;;;5.33;4.93;;;;;;;;;;4992442;28;20464;-72
2024/01/11 07:56:29;;;;;;;0.87;0.80;;;-3.20;1.00;;;;;;4990830;28;20486;-74
2024/01/11 07:58:58;;;;;;;7.93;3.17;;;;;;;;;;4987832;28;20468;-76
2024/01/11 08:01:26;;;;;;;3.47;2.63;;;-3.10;1.00;;;;;;4988416;28;20457;-73
2024/01/11 08:03:53;;;;;;;1.70;1.60;;;-3.10;1.00;;;;;;4988924;28;20464;-75
2024/01/11 08:06:23;;;;;;;0.70;0.60;;;-3.00;1.00;;;;;;4986360;28;20476;-74
2024/01/11 08:08:52;;;;;;;4.70;2.90;;;-3.00;1.00;;;;;;4993052;28;20460;-73
2024/01/11 08:11:21;;;;;;;6.13;3.90;;;-3.00;1.00;;;;;;4986695;28;20476;-74
2024/01/11 08:13:49;;;;;;;12.90;10.10;;;-3.00;1.00;;;;;;4991620;28;20449;-73
2024/01/11 08:16:17;;;;;;;0.60;0.50;;;-2.90;1.00;;;;;;4992867;28;21091;-74
2024/01/11 08:18:46;;;;;;;5.00;4.80;;;;;;;;;;4992281;28;20448;-72
2024/01/11 08:21:14;;;;;;;6.90;3.37;;;-2.90;1.00;;;;;;4990538;28;20480;-74
2024/01/11 08:23:44;;;;;;;9.83;2.73;;;-2.80;1.00;;;;;;4992340;28;20443;-72
2024/01/11 08:26:14;;;;;;;0.50;0.20;;;-2.70;1.00;;;;;;4985542;28;20980;-72
2024/01/11 08:28:43;;;;;;;2.40;0.77;;;-2.70;1.00;;;;;;4991913;28;20535;-73
2024/01/11 08:31:12;;;;;;;2.13;2.03;;;;;;;;;;4982472;28;20481;-73
2024/01/11 08:33:40;;;;;;;8.73;3.97;;;-2.70;1.00;;;;;;4973273;28;20454;-72
2024/01/11 08:36:08;;;;;;;11.10;8.20;;;-2.70;1.00;;;;;;4991386;28;20951;-72
2024/01/11 08:38:36;;;;;;;1.33;1.10;;;-2.70;1.00;;;;;;4992623;28;20511;-74
2024/01/11 08:41:06;;;;;;;4.83;2.27;;;-2.70;1.00;;;;;;4987300;28;20442;-74
2024/01/11 08:43:34;;;;;;;6.10;5.70;;;;;;;;;;4984646;28;20512;-71
2024/01/11 08:46:02;;;;;;;5.07;3.40;;;-2.70;1.00;;;;;;4981288;28;20536;-72
2024/01/11 08:48:31;;;;;;;19.73;11.23;;;;;;;;;;4975961;28;20477;-72
2024/01/11 08:50:59;;;;;;;6.40;4.40;;;-2.70;1.00;;;;;;4975187;28;20481;-72
2024/01/11 08:53:27;;;;;;;18.27;5.90;;;-2.70;1.00;;;;;;4993115;28;20844;-74
2024/01/11 08:55:55;;;;;;;6.73;4.87;;;-2.70;1.00;;;;;;4990154;28;20454;-74
2024/01/11 08:58:24;;;;;;;2.17;2.03;;;-1.30;1.00;;;;;;5000188;28;20456;-73
2024/01/11 09:00:52;;;;;;;2.83;2.67;;;-2.70;1.00;;;;;;5000343;28;20528;-75
2024/01/11 09:03:21;;;;;;;5.83;1.80;;;;;;;;;;4978808;28;20448;-74
2024/01/11 09:05:49;;;;;;;1.07;0.97;;;;;;;;;;4984512;28;20484;-74
2024/01/11 09:08:17;;;;;;;2.40;2.30;;;-2.50;1.00;;;;;;4992811;28;20480;-74
2024/01/11 09:10:45;;;;;;;3.90;3.43;;;-2.50;1.00;;;;;;4979410;28;20446;-74
2024/01/11 09:13:13;;;;;;;0.50;0.10;;;-2.30;1.00;;;;;;4984220;28;20500;-73
2024/01/11 09:15:43;;;;;;;2.23;2.10;;;-2.20;1.00;;;;;;4990873;28;20618;-74
2024/01/11 09:18:11;;;;;;;0.73;0.73;;;-2.20;1.00;;;;;;4976509;28;20457;-74
2024/01/11 09:20:39;;;;;;;0.60;0.40;;;-2.20;1.00;;;;;;4985690;28;20436;-74
2024/01/11 09:23:08;;;;;;;0.70;0.67;;;-1.20;1.00;;;;;;4990011;28;20460;-75
2024/01/11 09:25:35;;;;;;;6.23;4.10;;;-2.10;1.00;;;;;;4985923;28;20441;-72
2024/01/11 09:28:04;;;;;;;0.50;0.10;;;-2.10;1.00;;;;;;4982988;28;20460;-74
2024/01/11 09:30:32;;;;;;;4.13;3.33;;;-2.10;1.00;;;;;;4981331;28;20472;-74
2024/01/11 09:33:02;;;;;;;0.50;0.10;;;-2.00;1.00;;;;;;4988838;28;20484;-74
2024/01/11 09:35:30;;;;;;;31.23;28.43;;;-2.00;1.00;;;;;;4982522;28;20452;-74
2024/01/11 09:37:59;;;;;;;1.27;1.17;;;-1.90;1.00;;;;;;4988976;28;20901;-74
2024/01/11 09:40:26;;;;;;;0.50;0.10;;;-1.80;1.00;;;;;;4978561;28;20449;-75
2024/01/11 09:42:54;;;;;;;15.23;1.70;;;-1.80;1.00;;;;;;4988187;28;20445;-74
2024/01/11 09:45:22;;;;;;;12.40;7.10;;;-1.70;1.00;;;;;;4988237;28;20442;-73
2024/01/11 09:47:52;;;;;;;6.43;2.33;;;-1.70;1.00;;;;;;4984522;28;20528;-73
2024/01/11 09:50:23;;;;;;;1.73;0.47;;;-1.70;1.00;;;;;;4995096;28;20885;-74
2024/01/11 09:52:51;;;;;;;2.40;1.53;;;-1.60;1.00;;;;;;4994419;28;20484;-74
2024/01/11 09:55:20;;;;;;;0.50;0.20;;;-1.60;1.00;;;;;;4992437;28;20518;-75
2024/01/11 09:57:49;;;;;;;0.50;0.10;;;-1.50;1.00;;;;;;4989320;28;20531;-74
2024/01/11 10:00:19;;;;;;;0.60;0.53;;;-1.40;1.00;;;;;;4991129;28;20476;-72
2024/01/11 10:02:47;;;;;;;0.50;0.10;;;-1.30;1.00;;;;;;4991530;28;20533;-74
2024/01/11 10:05:18;;;;;;;0.50;0.10;;;-1.30;1.00;;;;;;4982504;28;20465;-75
2024/01/11 10:07:47;;;;;;;0.50;0.20;;;-1.10;1.00;;;;;;4991368;28;20522;-73
2024/01/11 10:10:16;;;;;;;0.50;0.10;;;-1.10;1.00;;;;;;4985415;28;20497;-74
2024/01/11 10:12:44;;;;;;;3.60;3.50;;;-1.00;1.00;;;;;;4989537;28;20484;-74
2024/01/11 10:15:13;;;;;;;0.50;0.27;;;-1.00;1.00;;;;;;4992737;28;20783;-75
2024/01/11 10:17:43;;;;;;;4.83;4.47;;;-0.90;1.00;;;;;;4991945;28;20544;-74
2024/01/11 10:20:13;;;;;;;0.50;0.10;;;-0.90;1.00;;;;;;4996268;28;20453;-74
2024/01/11 10:22:42;;;;;;;0.50;0.10;;;-0.90;1.00;;;;;;4993982;28;20945;-73
2024/01/11 10:25:13;;;;;;;1.03;0.93;;;-0.80;1.00;;;;;;4990468;28;20449;-73
2024/01/11 10:27:43;;;;;;;0.90;0.87;;;-0.70;1.00;;;;;;4984845;28;20984;-74
2024/01/11 10:30:15;;;;;;;3.40;3.20;;;-0.60;1.00;;;;;;4988144;28;20445;-73
2024/01/11 10:32:44;;;;;;;0.50;0.30;;;-0.50;1.00;;;;;;4980388;28;20643;-74
2024/01/11 10:35:12;;;;;;;0.50;0.17;;;-0.50;1.00;;;;;;4987021;28;20442;-73
2024/01/11 10:37:41;;;;;;;1.43;1.33;;;-0.40;1.00;;;;;;4984023;28;20606;-73
2024/01/11 10:40:12;;;;;;;2.97;2.23;;;-0.40;1.00;;;;;;4982287;28;20456;-73
2024/01/11 10:42:43;;;;;;;1.90;1.80;;;-0.50;1.00;;;;;;4990969;28;20445;-77
2024/01/11 10:45:16;;;;;;;4.43;4.00;;;-0.50;1.00;;;;;;4986840;28;20446;-74
2024/01/11 10:47:55;;;;;;;0.50;0.20;;;-0.60;1.00;;;;;;4988621;28;20477;-75
2024/01/11 10:50:26;;;;;;;2.40;2.30;;;-0.60;1.00;;;;;;4992833;28;21450;-74
2024/01/11 10:53:03;;;;;;;0.50;0.10;;;-0.50;1.00;;;;;;4985718;28;20520;-75
2024/01/11 10:55:34;;;;;;;2.53;2.33;;;-0.50;1.00;;;;;;4982925;28;20442;-72
2024/01/11 10:58:05;;;;;;;0.50;0.27;;;-0.40;1.00;;;;;;4990164;28;20954;-75
2024/01/11 11:00:36;;;;;;;2.00;1.13;;;-0.40;1.00;;;;;;4993693;28;20475;-75
2024/01/11 11:03:06;;;;;;;3.40;3.20;;;-0.30;1.00;;;;;;4995084;28;20543;-74
2024/01/11 11:05:36;;;;;;;2.13;1.93;;;-0.20;1.00;;;;;;4991129;28;20966;-74
2024/01/11 11:08:06;;;;;;;2.30;1.80;;;-0.20;1.00;;;;;;4994073;28;20457;-73
2024/01/11 11:10:35;;;;;;;0.73;0.73;;;-4.10;1.00;;;;;;4986673;28;20479;-74
2024/01/11 11:13:06;;;;;;;6.00;3.07;;;-0.10;1.00;;;;;;4991500;28;20507;-73
2024/01/11 11:15:36;;;;;;;1.80;1.60;;;-0.10;1.00;;;;;;4987490;28;20507;-73
2024/01/11 11:18:05;;;;;;;2.10;1.43;;;-0.10;1.00;;;;;;4990602;28;20531;-73
2024/01/11 11:20:33;;;;;;;7.20;4.43;;;0.00;1.00;;;;;;4980854;28;20446;-74
2024/01/11 11:23:05;;;;;;;2.97;2.60;;;0.00;1.00;;;;;;4993433;28;20457;-74
2024/01/11 11:25:35;;;;;;;1.60;1.50;;;0.10;1.00;;;;;;4982788;28;20519;-73
2024/01/11 11:28:05;;;;;;;0.50;0.20;;;0.20;1.00;;;;;;4990009;28;20515;-72
2024/01/11 11:30:33;;;;;;;0.50;0.10;;;0.30;1.00;;;;;;4990214;28;20476;-73
2024/01/11 11:33:09;;;;;;;1.43;1.40;;;0.30;1.00;;;;;;4990032;28;20477;-73
2024/01/11 11:35:38;;;;;;;0.50;0.10;;;0.40;1.00;;;;;;4986651;28;20444;-73
2024/01/11 11:38:06;;;;;;;0.50;0.10;;;0.50;1.00;;;;;;4993540;28;20457;-72
2024/01/11 11:40:39;;;;;;;0.73;0.57;;;0.60;1.00;;;;;;4997945;28;20457;-73
2024/01/11 11:43:08;;;;;;;4.17;3.83;;;0.60;1.00;;;;;;4994046;28;20909;-74
2024/01/11 11:45:36;;;;;;;1.33;1.30;;;0.60;1.00;;;;;;4976635;28;20512;-74
2024/01/11 11:48:45;;;;;;;4.43;2.87;;;0.70;1.00;;;;;;4983348;28;20504;-72
2024/01/11 11:51:15;;;;;;;13.50;7.33;;;0.70;1.00;;;;;;4983099;28;20972;-73
2024/01/11 11:53:48;;;;;;;0.50;0.10;;;0.80;1.00;;;;;;4989006;28;20484;-74
2024/01/11 11:56:18;;;;;;;1.80;1.70;;;0.80;1.00;;;;;;4993113;28;21017;-72
2024/01/11 11:58:49;;;;;;;1.23;1.20;;;0.90;1.00;;;;;;5002712;28;20512;-74
2024/01/11 12:01:17;;;;;;;0.50;0.10;;;0.90;1.00;;;;;;4996878;28;20457;-73
2024/01/11 12:03:49;;;;;;;2.00;1.90;;;1.00;1.00;;;;;;4991908;28;20441;-73
2024/01/11 12:06:19;;;;;;;0.50;0.20;;;1.00;1.00;;;;;;4983976;28;20585;-73
2024/01/11 12:08:48;;;;;;;4.93;4.30;;;1.10;1.00;;;;;;4986796;28;20465;-73
2024/01/11 12:11:19;;;;;;;15.67;8.40;;;1.10;1.00;;;;;;4985585;28;20855;-73
2024/01/11 12:13:50;;;;;;;1.37;0.90;;;1.00;1.00;;;;;;4981769;28;20480;-74
2024/01/11 12:16:18;;;;;;;0.80;0.77;;;1.00;1.00;;;;;;4985298;28;20477;-73
2024/01/11 12:18:46;;;;;;;1.00;0.63;;;1.00;1.00;;;;;;4990224;28;20440;-72
2024/01/11 12:21:15;;;;;;;1.47;1.37;;;1.00;1.00;;;;;;4990056;28;20441;-73
2024/01/11 12:23:44;;;;;;;2.87;2.67;;;1.10;1.00;;;;;;4997925;28;20556;-73
2024/01/11 12:26:14;;;;;;;1.57;1.50;;;1.20;1.00;;;;;;4997914;28;20823;-73
2024/01/11 12:28:43;;;;;;;3.80;1.90;;;1.20;1.00;;;;;;4983496;28;20521;-74
2024/01/11 12:31:14;;;;;;;1.17;1.07;;;1.10;1.00;;;;;;4981909;28;20445;-74
2024/01/11 12:33:43;;;;;;;1.43;1.33;;;1.20;1.00;;;;;;4978562;28;20528;-74
2024/01/11 12:36:12;;;;;;;12.50;6.07;;;1.30;1.00;;;;;;4992416;28;20487;-73
2024/01/11 12:38:47;;;;;;;1.13;1.13;;;1.30;1.00;;;;;;4988327;28;20450;-73
2024/01/11 12:41:21;;;;;;;0.50;0.10;;;1.40;1.00;;;;;;4982404;28;20456;-73
2024/01/11 12:43:50;;;;;;;15.53;6.43;;;1.40;1.00;;;;;;4988381;28;20441;-74
2024/01/11 12:46:19;;;;;;;11.53;6.57;;;1.40;1.00;;;;;;4995869;28;20983;-73
2024/01/11 12:48:47;;;;;;;1.90;1.10;;;1.50;1.00;;;;;;4985100;28;20529;-73
2024/01/11 12:51:18;;;;;;;2.70;2.53;;;1.50;1.00;;;;;;4997846;28;20445;-72
2024/01/11 12:53:49;;;;;;;0.60;0.33;;;1.50;1.00;;;;;;4992977;28;20487;-74
2024/01/11 12:56:18;;;;;;;0.50;0.10;;;1.70;1.00;;;;;;4986782;28;20960;-73
2024/01/11 12:58:47;;;;;;;0.50;0.10;;;1.80;1.00;;;;;;4987986;28;20442;-73
2024/01/11 13:01:15;;;;;;;2.10;2.00;;;1.90;1.00;;;;;;4981519;28;20982;-72
2024/01/11 13:03:46;;;;;;;0.70;0.67;;;1.90;1.00;;;;;;4984567;28;20452;-74
2024/01/11 13:06:17;;;;;;;0.50;0.10;;;2.00;1.00;;;;;;4991661;28;20460;-73
2024/01/11 13:08:45;;;;;;;1.10;0.87;;;2.00;1.00;;;;;;4984386;28;20464;-72
2024/01/11 13:11:16;;;;;;;0.50;0.10;;;2.10;1.00;;;;;;4992611;28;20445;-73
2024/01/11 13:13:46;;;;;;;0.50;0.10;;;2.20;1.00;;;;;;4992039;28;20592;-74
2024/01/11 13:16:15;;;;;;;0.80;0.70;;;2.20;1.00;;;;;;4986265;28;20952;-73
2024/01/11 13:18:44;;;;;;;0.57;0.27;;;2.30;1.00;;;;;;4987966;28;20448;-74